Time;durP1;ratioP1;P1;durP2;ratioP2;P2;SDS_P1;SDS_P2;PMS_P1;PMS_P2;Temp;Humidity;BMP_temperature;BMP_pressure;BME280_temperature;BME280_humidity;BME280_pressure;Samples;Min_cycle;Max_cycle;Signal;HPM_P1;HPM_P2
2022/05/29 00:00:36;;;;;;;13.45;4.43;;;;;;;;;;5055346;28;20546;-57
2022/05/29 00:03:02;;;;;;;14.13;5.07;;;;;;;;;;5067743;28;20719;-58
2022/05/29 00:05:28;;;;;;;11.15;3.97;;;;;;;;;;5068777;28;20378;-57
2022/05/29 00:07:56;;;;;;;12.90;3.95;;;;;;;;;;5087720;28;20381;-55
2022/05/29 00:10:22;;;;;;;14.68;5.10;;;;;;;;;;5069882;28;20374;-57
2022/05/29 00:12:48;;;;;;;15.52;4.78;;;;;;;;;;5087746;28;20381;-57
2022/05/29 00:15:14;;;;;;;13.27;4.73;;;;;;;;;;5071461;28;20397;-56
2022/05/29 00:17:40;;;;;;;15.27;4.70;;;;;;;;;;5090476;28;20623;-55
2022/05/29 00:20:06;;;;;;;13.23;4.57;;;;;;;;;;5072179;28;20692;-53
2022/05/29 00:22:33;;;;;;;15.52;4.55;;;;;;;;;;5069228;28;20401;-56
2022/05/29 00:24:59;;;;;;;10.23;4.20;;;;;;;;;;5068544;28;20394;-56
2022/05/29 00:27:25;;;;;;;13.90;4.63;;;;;;;;;;5086056;28;20428;-57
2022/05/29 00:29:51;;;;;;;15.63;4.37;;;;;;;;;;5084532;28;20797;-57
2022/05/29 00:32:17;;;;;;;15.00;4.82;;;;;;;;;;5087903;28;20410;-53
2022/05/29 00:34:43;;;;;;;16.95;4.95;;;;;;;;;;5070495;28;20390;-52
2022/05/29 00:37:10;;;;;;;17.17;4.82;;;;;;;;;;5090160;28;20797;-52
2022/05/29 00:39:36;;;;;;;15.17;4.50;;;;;;;;;;5091578;28;20598;-51
2022/05/29 00:42:06;;;;;;;15.00;4.78;;;;;;;;;;5071827;28;20521;-55
2022/05/29 00:44:33;;;;;;;15.48;4.88;;;;;;;;;;5074711;28;20443;-56
2022/05/29 00:47:02;;;;;;;17.13;4.88;;;;;;;;;;5075683;28;20378;-56
2022/05/29 00:49:30;;;;;;;11.60;4.38;;;;;;;;;;5075843;28;20370;-52
2022/05/29 00:52:01;;;;;;;15.13;4.43;;;;;;;;;;5077662;28;20548;-54
2022/05/29 00:54:29;;;;;;;13.82;4.55;;;;;;;;;;5078926;28;20488;-57
2022/05/29 00:56:55;;;;;;;18.17;4.90;;;;;;;;;;5077602;28;20413;-55
2022/05/29 00:59:22;;;;;;;17.73;5.47;;;;;;;;;;5076007;28;20454;-54
2022/05/29 01:01:50;;;;;;;12.18;4.45;;;;;;;;;;5074439;28;20723;-56
2022/05/29 01:04:16;;;;;;;15.82;5.38;;;;;;;;;;5053759;28;20810;-58
2022/05/29 01:06:42;;;;;;;18.08;5.78;;;;;;;;;;5053869;28;20408;-55
2022/05/29 01:09:09;;;;;;;13.18;4.72;;;;;;;;;;5055163;28;20437;-55
2022/05/29 01:11:54;;;;;;;18.50;4.80;;;;;;;;;;5072416;28;20426;-56
2022/05/29 01:14:23;;;;;;;19.97;5.10;;;;;;;;;;5072469;28;20372;-57
2022/05/29 01:17:01;;;;;;;14.18;5.15;;;;;;;;;;5071456;28;20411;-57
2022/05/29 01:19:46;;;;;;;15.93;5.10;;;;;;;;;;5053498;28;20380;-56
2022/05/29 01:22:29;;;;;;;17.38;5.40;;;;;;;;;;5071311;28;20419;-55
2022/05/29 01:24:55;;;;;;;15.57;4.47;;;;;;;;;;5054533;28;20759;-58
2022/05/29 01:27:40;;;;;;;17.37;5.40;;;;;;;;;;5054571;28;20459;-56
2022/05/29 01:30:06;;;;;;;15.90;4.70;;;;;;;;;;5071139;28;20386;-58
2022/05/29 01:32:35;;;;;;;15.10;4.38;;;;;;;;;;5053861;28;20384;-58
2022/05/29 01:35:09;;;;;;;14.48;4.65;;;;;;;;;;5054981;28;20384;-57
2022/05/29 01:37:38;;;;;;;18.48;4.95;;;;;;;;;;5054907;28;20495;-55
2022/05/29 01:40:04;;;;;;;12.23;4.13;;;;;;;;;;5054679;28;20703;-58
2022/05/29 01:42:34;;;;;;;16.10;4.57;;;;;;;;;;5054142;28;20820;-57
2022/05/29 01:45:05;;;;;;;15.23;4.50;;;;;;;;;;5071478;28;20472;-56
2022/05/29 01:47:39;;;;;;;17.75;4.85;;;;;;;;;;5056555;28;20364;-58
2022/05/29 01:50:14;;;;;;;16.52;4.75;;;;;;;;;;5055784;28;20384;-53
2022/05/29 01:52:47;;;;;;;14.93;4.85;;;;;;;;;;5052914;28;20384;-56
2022/05/29 01:55:20;;;;;;;15.65;4.72;;;;;;;;;;5068144;28;20437;-55
2022/05/29 01:57:48;;;;;;;17.20;5.00;;;;;;;;;;5052171;28;20832;-55
2022/05/29 02:00:17;;;;;;;19.23;4.88;;;;;;;;;;5069815;28;20822;-56
2022/05/29 02:02:48;;;;;;;11.32;3.83;;;;;;;;;;5050830;28;20435;-55
2022/05/29 02:05:34;;;;;;;16.30;4.70;;;;;;;;;;5053786;28;20384;-57
2022/05/29 02:08:17;;;;;;;11.63;3.88;;;;;;;;;;5072687;28;20391;-53
2022/05/29 02:10:55;;;;;;;19.45;5.45;;;;;;;;;;5055220;28;20383;-56
2022/05/29 02:13:34;;;;;;;16.50;5.65;;;;;;;;;;5055072;28;20392;-57
2022/05/29 02:16:11;;;;;;;18.60;4.83;;;;;;;;;;5050912;28;20439;-54
2022/05/29 02:18:46;;;;;;;15.63;4.47;;;;;;;;;;5053181;28;20639;-55
2022/05/29 02:21:15;;;;;;;18.38;4.75;;;;;;;;;;5051255;28;20404;-55
2022/05/29 02:23:49;;;;;;;17.58;4.72;;;;;;;;;;5049783;28;20384;-57
2022/05/29 02:26:18;;;;;;;14.05;4.30;;;;;;;;;;5049907;28;20475;-56
2022/05/29 02:28:46;;;;;;;14.38;4.43;;;;;;;;;;5050217;28;20399;-57
2022/05/29 02:31:19;;;;;;;15.27;4.20;;;;;;;;;;5071788;28;20865;-56
2022/05/29 02:33:51;;;;;;;13.15;4.28;;;;;;;;;;5055260;28;20388;-54
2022/05/29 02:36:29;;;;;;;18.77;4.88;;;;;;;;;;5056036;28;20478;-56
2022/05/29 02:39:16;;;;;;;17.45;4.85;;;;;;;;;;5055159;28;20394;-56
2022/05/29 02:41:46;;;;;;;15.30;4.78;;;;;;;;;;5070407;28;20793;-57
2022/05/29 02:44:31;;;;;;;18.23;4.82;;;;;;;;;;5055211;28;20389;-56
2022/05/29 02:47:06;;;;;;;10.40;3.80;;;;;;;;;;5057111;28;20402;-55
2022/05/29 02:49:37;;;;;;;22.17;5.15;;;;;;;;;;5056859;28;20446;-52
2022/05/29 02:52:12;;;;;;;16.88;5.00;;;;;;;;;;5056298;28;20395;-56
2022/05/29 02:54:38;;;;;;;17.80;4.45;;;;;;;;;;5070740;28;20383;-58
2022/05/29 02:57:04;;;;;;;16.60;4.73;;;;;;;;;;5052961;28;20396;-52
2022/05/29 02:59:32;;;;;;;15.23;4.57;;;;;;;;;;5070633;28;20411;-56
2022/05/29 03:02:18;;;;;;;15.50;4.63;;;;;;;;;;5070553;28;20430;-57
2022/05/29 03:04:47;;;;;;;8.45;3.50;;;;;;;;;;5050470;28;20474;-55
2022/05/29 03:07:32;;;;;;;16.23;4.47;;;;;;;;;;5053015;28;20506;-51
2022/05/29 03:10:10;;;;;;;18.77;4.65;;;;;;;;;;5053563;28;20372;-54
2022/05/29 03:12:55;;;;;;;21.48;4.95;;;;;;;;;;5055422;28;20779;-53
2022/05/29 03:15:24;;;;;;;18.85;5.20;;;;;;;;;;5054571;28;20419;-55
2022/05/29 03:17:50;;;;;;;15.10;4.70;;;;;;;;;;5052146;28;20384;-53
2022/05/29 03:20:34;;;;;;;17.03;5.03;;;;;;;;;;5052448;28;20680;-56
2022/05/29 03:23:08;;;;;;;12.32;3.95;;;;;;;;;;5068526;28;20403;-57
2022/05/29 03:25:38;;;;;;;15.07;4.85;;;;;;;;;;5052596;28;20871;-56
2022/05/29 03:28:04;;;;;;;19.50;4.57;;;;;;;;;;5050321;28;20399;-58
2022/05/29 03:30:35;;;;;;;14.40;4.60;;;;;;;;;;5069752;28;20466;-55
2022/05/29 03:33:04;;;;;;;15.80;4.70;;;;;;;;;;5054100;28;20748;-58
2022/05/29 03:35:35;;;;;;;15.45;4.55;;;;;;;;;;5056525;28;20463;-56
2022/05/29 03:38:01;;;;;;;17.60;4.82;;;;;;;;;;5053158;28;20602;-57
2022/05/29 03:40:29;;;;;;;18.00;4.95;;;;;;;;;;5052869;28;20389;-57
2022/05/29 03:42:55;;;;;;;18.98;4.85;;;;;;;;;;5053100;28;20993;-56
2022/05/29 03:45:22;;;;;;;20.27;5.13;;;;;;;;;;5052209;28;20390;-57
2022/05/29 03:47:47;;;;;;;16.05;4.53;;;;;;;;;;5051270;28;20399;-53
2022/05/29 03:50:17;;;;;;;18.55;4.82;;;;;;;;;;5068734;28;20376;-58
2022/05/29 03:52:44;;;;;;;14.10;4.55;;;;;;;;;;5070100;28;20710;-57
2022/05/29 03:55:10;;;;;;;14.88;4.55;;;;;;;;;;5050359;28;20387;-54
2022/05/29 03:57:36;;;;;;;15.20;4.30;;;;;;;;;;5069661;28;20567;-57
2022/05/29 04:00:37;;;;;;;14.15;4.20;;;;;;;;;;5052363;28;20396;-58
2022/05/29 04:12:13;;;;;;;21.60;4.97;;;;;;;;;;5092466;28;20503;-56
2022/05/29 04:14:41;;;;;;;17.15;4.82;;;;;;;;;;5077596;28;20469;-58
2022/05/29 04:17:08;;;;;;;20.02;4.82;;;;;;;;;;5078096;28;20439;-55
2022/05/29 04:19:34;;;;;;;16.48;4.43;;;;;;;;;;5077788;28;20784;-58
2022/05/29 04:21:59;;;;;;;15.45;4.40;;;;;;;;;;5096742;28;20399;-55
2022/05/29 04:24:26;;;;;;;12.27;3.78;;;;;;;;;;5078476;28;20465;-56
2022/05/29 04:26:51;;;;;;;21.63;5.10;;;;;;;;;;5095555;28;20378;-56
2022/05/29 04:29:18;;;;;;;12.80;4.53;;;;;;;;;;5076694;28;20443;-57
2022/05/29 04:34:31;;;;;;;16.25;4.78;;;;;;;;;;5063815;28;20494;-56
2022/05/29 04:36:57;;;;;;;13.20;4.30;;;;;;;;;;5096262;28;20675;-56
2022/05/29 04:39:25;;;;;;;16.00;5.60;;;;;;;;;;5077940;28;20390;-57
2022/05/29 04:41:51;;;;;;;17.58;4.90;;;;;;;;;;5077519;28;20413;-53
2022/05/29 04:44:19;;;;;;;18.33;5.25;;;;;;;;;;5076510;28;20646;-54
2022/05/29 04:46:58;;;;;;;18.05;5.28;;;;;;;;;;5076940;28;20378;-54
2022/05/29 04:49:24;;;;;;;19.98;5.80;;;;;;;;;;5093776;28;20379;-55
2022/05/29 04:51:50;;;;;;;20.45;5.10;;;;;;;;;;5074736;28;20581;-56
2022/05/29 04:54:16;;;;;;;18.17;4.57;;;;;;;;;;5074223;28;20507;-57
2022/05/29 04:56:43;;;;;;;13.25;3.97;;;;;;;;;;5090977;28;20705;-55
2022/05/29 04:59:08;;;;;;;18.47;5.23;;;;;;;;;;5090788;28;20673;-51
2022/05/29 05:01:38;;;;;;;16.75;4.93;;;;;;;;;;5071658;28;20836;-55
2022/05/29 05:04:04;;;;;;;18.90;5.03;;;;;;;;;;5072236;28;20382;-53
2022/05/29 05:06:30;;;;;;;13.77;4.85;;;;;;;;;;5072679;28;20390;-56
2022/05/29 05:08:56;;;;;;;15.85;4.80;;;;;;;;;;5090215;28;20463;-55
2022/05/29 05:11:22;;;;;;;18.70;4.75;;;;;;;;;;5089099;28;20382;-56
2022/05/29 05:13:48;;;;;;;19.88;4.68;;;;;;;;;;5069719;28;20867;-58
2022/05/29 05:16:14;;;;;;;14.68;4.57;;;;;;;;;;5069478;28;20382;-55
2022/05/29 05:18:40;;;;;;;13.23;4.43;;;;;;;;;;5071009;28;20382;-57
2022/05/29 05:21:07;;;;;;;20.23;5.80;;;;;;;;;;5090119;28;20385;-55
2022/05/29 05:23:33;;;;;;;19.20;5.28;;;;;;;;;;5070714;28;20390;-56
2022/05/29 05:25:59;;;;;;;16.20;4.70;;;;;;;;;;5071548;28;20425;-57
2022/05/29 05:28:25;;;;;;;16.50;4.35;;;;;;;;;;5073015;28;20394;-56
2022/05/29 05:30:51;;;;;;;18.05;4.63;;;;;;;;;;5072405;28;20378;-56
2022/05/29 05:33:18;;;;;;;18.57;5.40;;;;;;;;;;5092341;28;20382;-58
2022/05/29 05:35:44;;;;;;;13.20;4.65;;;;;;;;;;5075454;28;20415;-55
2022/05/29 05:38:10;;;;;;;16.48;4.85;;;;;;;;;;5076284;28;20462;-56
2022/05/29 05:40:36;;;;;;;15.80;4.55;;;;;;;;;;5074640;28;20402;-54
2022/05/29 05:43:02;;;;;;;18.03;4.97;;;;;;;;;;5090005;28;20743;-57
2022/05/29 05:45:27;;;;;;;18.37;4.93;;;;;;;;;;5090673;28;20671;-56
2022/05/29 05:47:55;;;;;;;16.85;4.57;;;;;;;;;;5074128;28;20390;-56
2022/05/29 05:50:21;;;;;;;15.20;4.28;;;;;;;;;;5073625;28;20408;-56
2022/05/29 05:52:46;;;;;;;15.98;4.80;;;;;;;;;;5073123;28;20390;-57
2022/05/29 05:55:13;;;;;;;15.82;4.78;;;;;;;;;;5073108;28;20389;-55
2022/05/29 05:57:39;;;;;;;14.47;4.73;;;;;;;;;;5071495;28;20409;-52
2022/05/29 06:00:08;;;;;;;12.10;4.63;;;;;;;;;;5072277;28;20389;-57
2022/05/29 06:02:34;;;;;;;12.43;3.80;;;;;;;;;;5067273;28;20489;-58
2022/05/29 06:05:00;;;;;;;16.40;4.57;;;;;;;;;;5067526;28;20383;-55
2022/05/29 06:07:26;;;;;;;11.10;3.70;;;;;;;;;;5067869;28;20372;-56
2022/05/29 06:09:52;;;;;;;16.70;4.77;;;;;;;;;;5066522;28;20666;-57
2022/05/29 06:12:21;;;;;;;15.53;4.87;;;;;;;;;;5065216;28;20411;-57
2022/05/29 06:14:48;;;;;;;12.38;4.70;;;;;;;;;;5066299;28;20380;-57
2022/05/29 06:17:14;;;;;;;18.43;4.87;;;;;;;;;;5067618;28;20930;-56
2022/05/29 06:19:40;;;;;;;14.48;4.82;;;;;;;;;;5067508;28;20384;-56
2022/05/29 06:22:07;;;;;;;14.98;4.55;;;;;;;;;;5067038;28;20400;-54
2022/05/29 06:24:33;;;;;;;13.65;4.32;;;;;;;;;;5067119;28;20905;-51
2022/05/29 06:27:00;;;;;;;13.65;4.30;;;;;;;;;;5064111;28;20505;-58
2022/05/29 06:29:26;;;;;;;14.50;4.33;;;;;;;;;;5064105;28;20461;-58
2022/05/29 06:31:59;;;;;;;16.10;5.18;;;;;;;;;;5061044;28;20427;-56
2022/05/29 06:34:25;;;;;;;16.90;5.00;;;;;;;;;;5060049;28;20426;-55
2022/05/29 06:36:51;;;;;;;17.05;4.93;;;;;;;;;;5060149;28;20411;-58
2022/05/29 06:39:17;;;;;;;15.50;4.67;;;;;;;;;;5059478;28;20384;-58
2022/05/29 06:41:43;;;;;;;17.52;4.85;;;;;;;;;;5061050;28;20614;-52
2022/05/29 06:44:10;;;;;;;14.25;4.40;;;;;;;;;;5059993;28;20376;-55
2022/05/29 06:46:36;;;;;;;15.38;4.30;;;;;;;;;;5062702;28;20465;-55
2022/05/29 06:49:02;;;;;;;18.38;5.07;;;;;;;;;;5065332;28;20791;-57
2022/05/29 06:51:28;;;;;;;12.38;4.22;;;;;;;;;;5066443;28;20678;-56
2022/05/29 06:53:56;;;;;;;12.80;4.20;;;;;;;;;;5067031;28;20538;-56
2022/05/29 06:56:22;;;;;;;10.10;3.63;;;;;;;;;;5065172;28;20391;-57
2022/05/29 06:58:48;;;;;;;11.75;3.70;;;;;;;;;;5065336;28;20574;-55
2022/05/29 07:07:00;;;;;;;11.50;3.80;;;;;;;;;;5084785;28;20385;-54
2022/05/29 07:09:27;;;;;;;11.02;3.75;;;;;;;;;;5065969;28;20416;-55
2022/05/29 07:11:55;;;;;;;13.95;3.95;;;;;;;;;;5066478;28;20385;-56
2022/05/29 07:14:21;;;;;;;10.98;3.40;;;;;;;;;;5067078;28;20378;-55
2022/05/29 07:16:47;;;;;;;11.57;3.80;;;;;;;;;;5065622;28;20574;-50
2022/05/29 07:19:14;;;;;;;7.15;2.70;;;;;;;;;;5083019;28;20374;-57
2022/05/29 07:21:41;;;;;;;8.30;3.00;;;;;;;;;;5085027;28;20663;-54
2022/05/29 07:24:08;;;;;;;7.90;3.30;;;;;;;;;;5085020;28;20394;-57
2022/05/29 07:26:59;;;;;;;7.90;2.97;;;;;;;;;;5068256;28;20386;-57
2022/05/29 07:32:35;;;;;;;8.68;3.22;;;;;;;;;;5083879;28;20423;-57
2022/05/29 07:35:01;;;;;;;8.95;3.08;;;;;;;;;;5066256;28;20614;-57
2022/05/29 07:37:27;;;;;;;7.53;2.92;;;;;;;;;;5083588;28;20394;-56
2022/05/29 07:39:53;;;;;;;9.50;2.90;;;;;;;;;;5067091;28;20386;-56
2022/05/29 07:45:05;;;;;;;9.27;3.70;;;;;;;;;;5087927;28;20459;-57
2022/05/29 07:47:40;;;;;;;9.80;3.42;;;;;;;;;;5070981;28;20401;-59
2022/05/29 07:50:07;;;;;;;12.65;4.40;;;;;;;;;;5068508;28;20769;-58
2022/05/29 07:52:33;;;;;;;12.57;3.80;;;;;;;;;;5068934;28;20424;-56
2022/05/29 07:54:59;;;;;;;11.63;3.92;;;;;;;;;;5088353;28;20417;-56
2022/05/29 07:57:26;;;;;;;11.40;3.93;;;;;;;;;;5069856;28;20389;-57
2022/05/29 07:59:52;;;;;;;11.48;3.70;;;;;;;;;;5069427;28;20454;-59
2022/05/29 08:02:18;;;;;;;11.43;3.65;;;;;;;;;;5070141;28;20900;-58
2022/05/29 08:04:45;;;;;;;10.63;3.72;;;;;;;;;;5070234;28;20397;-57
2022/05/29 08:07:14;;;;;;;12.40;4.00;;;;;;;;;;5066974;28;20381;-58
2022/05/29 08:09:40;;;;;;;15.97;3.70;;;;;;;;;;5086819;28;20397;-57
2022/05/29 08:12:06;;;;;;;12.53;4.10;;;;;;;;;;5067950;28;20692;-57
2022/05/29 08:14:32;;;;;;;10.05;3.42;;;;;;;;;;5064844;28;20447;-58
2022/05/29 08:16:58;;;;;;;11.85;3.63;;;;;;;;;;5083296;28;20578;-57
2022/05/29 08:19:24;;;;;;;10.80;3.70;;;;;;;;;;5066271;28;20666;-54
2022/05/29 08:21:50;;;;;;;12.90;4.10;;;;;;;;;;5068478;28;20513;-58
2022/05/29 08:32:30;;;;;;;12.60;4.40;;;;;;;;;;5081452;28;20373;-54
2022/05/29 08:34:56;;;;;;;11.05;3.63;;;;;;;;;;5065483;28;20374;-56
2022/05/29 08:37:22;;;;;;;12.18;4.07;;;;;;;;;;5063727;28;20797;-56
2022/05/29 08:39:57;;;;;;;12.73;3.75;;;;;;;;;;5064307;28;20674;-56
2022/05/29 08:45:53;;;;;;;10.07;3.45;;;;;;;;;;5089820;28;20717;-58
2022/05/29 08:48:20;;;;;;;11.40;4.03;;;;;;;;;;5064265;28;20787;-57
2022/05/29 08:50:49;;;;;;;12.82;3.95;;;;;;;;;;5065237;28;20543;-55
2022/05/29 08:53:21;;;;;;;9.83;4.07;;;;;;;;;;5066261;28;20486;-57
2022/05/29 08:55:53;;;;;;;13.73;4.72;;;;;;;;;;5085272;28;20402;-54
2022/05/29 08:58:38;;;;;;;11.82;3.95;;;;;;;;;;5068544;28;20530;-54
2022/05/29 09:01:13;;;;;;;10.88;4.25;;;;;;;;;;5078669;28;20580;-54
2022/05/29 09:03:46;;;;;;;13.38;4.55;;;;;;;;;;5048153;28;20610;-56
2022/05/29 09:06:18;;;;;;;12.90;3.78;;;;;;;;;;5048896;28;20710;-58
2022/05/29 09:09:05;;;;;;;10.95;3.78;;;;;;;;;;5044592;28;20392;-55
2022/05/29 09:11:56;;;;;;;7.70;2.70;;;;;;;;;;4979911;28;20498;-56
2022/05/29 09:14:23;;;;;;;8.87;3.57;;;;;;;;;;5064527;28;20576;-56
2022/05/29 09:16:57;;;;;;;7.57;3.00;;;;;;;;;;5045922;28;20773;-57
2022/05/29 09:19:23;;;;;;;13.05;3.75;;;;;;;;;;5048363;28;20753;-54
2022/05/29 09:21:55;;;;;;;9.07;3.50;;;;;;;;;;5048417;28;20400;-57
2022/05/29 09:24:40;;;;;;;9.68;3.38;;;;;;;;;;5047283;28;20442;-57
2022/05/29 09:27:08;;;;;;;9.60;3.53;;;;;;;;;;5064224;28;20712;-56
2022/05/29 09:29:36;;;;;;;8.00;3.10;;;;;;;;;;5064517;28;20375;-58
2022/05/29 09:32:03;;;;;;;10.88;3.88;;;;;;;;;;5048486;28;20478;-54
2022/05/29 09:34:29;;;;;;;8.40;2.90;;;;;;;;;;5047957;28;20451;-58
2022/05/29 09:37:02;;;;;;;9.93;3.33;;;;;;;;;;5047175;28;20478;-57
2022/05/29 09:39:46;;;;;;;7.17;2.67;;;;;;;;;;5048391;28;20691;-58
2022/05/29 09:42:33;;;;;;;10.02;3.65;;;;;;;;;;5047915;28;20822;-57
2022/05/29 09:45:15;;;;;;;9.50;3.17;;;;;;;;;;5046104;28;20384;-58
2022/05/29 09:50:39;;;;;;;8.57;3.03;;;;;;;;;;5065284;28;20425;-57
2022/05/29 09:56:05;;;;;;;6.93;2.70;;;;;;;;;;5061323;28;20810;-56
2022/05/29 09:58:48;;;;;;;11.40;3.10;;;;;;;;;;5043059;28;20384;-55
2022/05/29 10:01:26;;;;;;;5.35;2.45;;;;;;;;;;5051394;28;20418;-55
2022/05/29 10:03:54;;;;;;;6.55;2.55;;;;;;;;;;5063449;28;20378;-57
2022/05/29 10:06:30;;;;;;;8.02;2.80;;;;;;;;;;5065654;28;20374;-55
2022/05/29 10:09:16;;;;;;;7.55;2.90;;;;;;;;;;5066284;28;20856;-54
2022/05/29 10:11:43;;;;;;;10.77;3.20;;;;;;;;;;5065872;28;20374;-57
2022/05/29 10:14:25;;;;;;;9.93;3.22;;;;;;;;;;5065533;28;20382;-56
2022/05/29 10:16:53;;;;;;;9.65;3.20;;;;;;;;;;5069794;28;20427;-56
2022/05/29 10:19:34;;;;;;;11.23;3.67;;;;;;;;;;5073088;28;20397;-57
2022/05/29 10:22:01;;;;;;;8.88;3.13;;;;;;;;;;5072009;28;20832;-58
2022/05/29 10:24:32;;;;;;;9.98;3.50;;;;;;;;;;5089097;28;20730;-56
2022/05/29 10:27:00;;;;;;;8.70;3.33;;;;;;;;;;5071213;28;20374;-56
2022/05/29 10:29:31;;;;;;;8.80;3.03;;;;;;;;;;5072147;28;20394;-55
2022/05/29 10:31:58;;;;;;;8.80;3.17;;;;;;;;;;5089813;28;20646;-57
2022/05/29 10:34:26;;;;;;;9.57;2.97;;;;;;;;;;5071261;28;20402;-56
2022/05/29 10:36:52;;;;;;;10.50;3.20;;;;;;;;;;5066480;28;20378;-57
2022/05/29 10:39:19;;;;;;;10.63;3.63;;;;;;;;;;5070317;28;20382;-53
2022/05/29 10:41:45;;;;;;;7.85;2.85;;;;;;;;;;5072021;28;20487;-55
2022/05/29 10:44:13;;;;;;;7.93;3.08;;;;;;;;;;5072701;28;20386;-53
2022/05/29 10:46:53;;;;;;;11.15;2.95;;;;;;;;;;5069955;28;20393;-56
2022/05/29 10:49:27;;;;;;;10.80;3.22;;;;;;;;;;5071460;28;20477;-53
2022/05/29 10:52:01;;;;;;;7.40;2.60;;;;;;;;;;5071062;28;20870;-56
2022/05/29 10:54:30;;;;;;;7.82;2.33;;;;;;;;;;5070248;28;20476;-57
2022/05/29 10:57:08;;;;;;;7.80;2.72;;;;;;;;;;5070611;28;20859;-55
2022/05/29 10:59:53;;;;;;;9.77;3.20;;;;;;;;;;5071586;28;20389;-58
2022/05/29 11:05:11;;;;;;;8.32;2.60;;;;;;;;;;5070624;28;20371;-64
2022/05/29 11:07:46;;;;;;;6.68;2.20;;;;;;;;;;5052617;28;20526;-64
2022/05/29 11:10:12;;;;;;;7.35;2.47;;;;;;;;;;5052146;28;20969;-57
2022/05/29 11:12:45;;;;;;;6.60;2.25;;;;;;;;;;5052540;28;20467;-58
2022/05/29 11:15:11;;;;;;;8.38;2.55;;;;;;;;;;5053215;28;21056;-57
2022/05/29 11:17:47;;;;;;;7.50;2.60;;;;;;;;;;5054007;28;20432;-58
2022/05/29 11:20:34;;;;;;;7.65;2.25;;;;;;;;;;5071505;28;20386;-56
2022/05/29 11:23:19;;;;;;;10.63;2.67;;;;;;;;;;5070827;28;20450;-57
2022/05/29 11:25:57;;;;;;;6.00;2.15;;;;;;;;;;5052721;28;20372;-59
2022/05/29 11:28:40;;;;;;;8.75;2.40;;;;;;;;;;5053945;28;20499;-58
2022/05/29 11:31:42;;;;;;;7.97;2.33;;;;;;;;;;5054370;28;20566;-58
2022/05/29 11:34:26;;;;;;;10.07;2.30;;;;;;;;;;4987192;28;20425;-58
2022/05/29 11:37:14;;;;;;;8.17;2.37;;;;;;;;;;5061433;28;20452;-58
2022/05/29 11:39:55;;;;;;;9.75;3.58;;;;;;;;;;5049076;28;20479;-59
2022/05/29 11:42:24;;;;;;;9.90;3.13;;;;;;;;;;5048928;28;20410;-57
2022/05/29 11:44:54;;;;;;;7.70;2.65;;;;;;;;;;5065603;28;20379;-58
2022/05/29 11:56:45;;;;;;;8.35;2.70;;;;;;;;;;5065917;28;20495;-56
2022/05/29 11:59:29;;;;;;;10.52;2.58;;;;;;;;;;5045370;28;20811;-57
2022/05/29 12:02:01;;;;;;;4.03;1.90;;;;;;;;;;5063434;28;20438;-58
2022/05/29 12:04:44;;;;;;;5.82;1.92;;;;;;;;;;5060445;28;20380;-57
2022/05/29 12:07:18;;;;;;;7.30;2.22;;;;;;;;;;5058571;28;20383;-58
2022/05/29 12:09:48;;;;;;;6.82;2.17;;;;;;;;;;5058185;28;20376;-56
2022/05/29 12:12:17;;;;;;;7.18;2.03;;;;;;;;;;5039449;28;20846;-55
2022/05/29 12:14:47;;;;;;;6.10;2.03;;;;;;;;;;5038028;28;20660;-58
2022/05/29 12:17:19;;;;;;;5.88;1.80;;;;;;;;;;5055001;28;20948;-59
2022/05/29 12:19:47;;;;;;;5.88;2.38;;;;;;;;;;5055569;28;20399;-57
2022/05/29 12:22:15;;;;;;;8.13;2.13;;;;;;;;;;5038652;28;20430;-58
2022/05/29 12:24:48;;;;;;;6.25;1.90;;;;;;;;;;5042532;28;20383;-53
2022/05/29 12:27:16;;;;;;;6.93;2.20;;;;;;;;;;5042778;28;20371;-56
2022/05/29 12:29:49;;;;;;;4.13;1.70;;;;;;;;;;5043902;28;20491;-56
2022/05/29 12:32:25;;;;;;;8.52;2.30;;;;;;;;;;5045530;28;20419;-57
2022/05/29 12:35:09;;;;;;;6.10;2.05;;;;;;;;;;5043329;28;20974;-56
2022/05/29 12:37:35;;;;;;;5.18;1.98;;;;;;;;;;5042330;28;20751;-56
2022/05/29 12:40:10;;;;;;;8.93;2.50;;;;;;;;;;5068396;28;20387;-58
2022/05/29 12:42:52;;;;;;;6.95;2.50;;;;;;;;;;5051483;28;20483;-54
2022/05/29 12:45:22;;;;;;;6.72;2.10;;;;;;;;;;5070119;28;20426;-54
2022/05/29 12:47:52;;;;;;;8.82;2.83;;;;;;;;;;5052113;28;20388;-57
2022/05/29 12:50:37;;;;;;;6.88;2.20;;;;;;;;;;5050809;28;20483;-56
2022/05/29 12:53:21;;;;;;;5.65;2.20;;;;;;;;;;5050597;28;20394;-58
2022/05/29 12:56:03;;;;;;;4.85;2.10;;;;;;;;;;5053985;28;20383;-57
2022/05/29 12:58:41;;;;;;;6.97;2.60;;;;;;;;;;5052914;28;20683;-59
2022/05/29 13:01:22;;;;;;;4.22;1.77;;;;;;;;;;5069665;28;20415;-55
2022/05/29 13:04:03;;;;;;;5.90;1.85;;;;;;;;;;5051629;28;20384;-58
2022/05/29 13:06:41;;;;;;;5.47;1.95;;;;;;;;;;5067238;28;20407;-57
2022/05/29 13:09:07;;;;;;;6.28;2.10;;;;;;;;;;5050776;28;20433;-57
2022/05/29 13:11:37;;;;;;;7.18;2.00;;;;;;;;;;5049908;28;20463;-57
2022/05/29 13:14:06;;;;;;;8.68;2.35;;;;;;;;;;5049998;28;20869;-58
2022/05/29 13:16:40;;;;;;;4.32;1.77;;;;;;;;;;5051370;28;20383;-56
2022/05/29 13:19:17;;;;;;;5.90;1.90;;;;;;;;;;5070660;28;20379;-58
2022/05/29 13:21:59;;;;;;;7.32;2.00;;;;;;;;;;5054220;28;20449;-51
2022/05/29 13:24:28;;;;;;;8.33;2.30;;;;;;;;;;5053774;28;20379;-57
2022/05/29 13:27:09;;;;;;;6.77;2.60;;;;;;;;;;5052777;28;20462;-57
2022/05/29 13:29:46;;;;;;;9.93;2.45;;;;;;;;;;5052907;28;20388;-58
2022/05/29 13:32:17;;;;;;;5.90;1.73;;;;;;;;;;5068769;28;20707;-57
2022/05/29 13:34:46;;;;;;;9.03;2.30;;;;;;;;;;5069281;28;20469;-55
2022/05/29 13:37:31;;;;;;;5.30;1.90;;;;;;;;;;5051351;28;20383;-56
2022/05/29 13:40:06;;;;;;;6.03;2.00;;;;;;;;;;5047252;28;20372;-57
2022/05/29 13:42:45;;;;;;;4.82;2.03;;;;;;;;;;5066545;28;20387;-53
2022/05/29 13:45:20;;;;;;;4.18;1.90;;;;;;;;;;5049097;28;20962;-54
2022/05/29 13:47:47;;;;;;;6.65;1.80;;;;;;;;;;5049181;28;20395;-57
2022/05/29 13:50:13;;;;;;;5.00;1.60;;;;;;;;;;5048192;28;20379;-56
2022/05/29 13:52:42;;;;;;;8.05;1.92;;;;;;;;;;5050869;28;20391;-56
2022/05/29 13:55:13;;;;;;;5.57;1.70;;;;;;;;;;5051525;28;20510;-51
2022/05/29 14:06:20;;;;;;;4.43;1.50;;;;;;;;;;5064607;28;20371;-57
2022/05/29 14:08:54;;;;;;;5.68;1.85;;;;;;;;;;5046414;28;20388;-57
2022/05/29 14:11:20;;;;;;;4.00;1.50;;;;;;;;;;5045342;28;20640;-55
2022/05/29 14:13:48;;;;;;;6.72;2.13;;;;;;;;;;5045252;28;20372;-55
2022/05/29 14:16:29;;;;;;;7.80;1.90;;;;;;;;;;5044859;28;20448;-56
2022/05/29 14:19:14;;;;;;;5.57;1.92;;;;;;;;;;5047177;28;20372;-58
2022/05/29 14:21:43;;;;;;;6.40;2.08;;;;;;;;;;5048229;28;20408;-55
2022/05/29 14:24:16;;;;;;;5.55;1.73;;;;;;;;;;5047082;28;20376;-58
2022/05/29 14:27:02;;;;;;;3.25;1.52;;;;;;;;;;5046550;28;20858;-53
2022/05/29 14:29:28;;;;;;;5.25;1.67;;;;;;;;;;5046162;28;20702;-56
2022/05/29 14:32:05;;;;;;;6.30;1.77;;;;;;;;;;5061441;28;20803;-56
2022/05/29 14:34:35;;;;;;;3.67;1.40;;;;;;;;;;5061462;28;20443;-58
2022/05/29 14:37:33;;;;;;;4.78;1.60;;;;;;;;;;5045904;28;20650;-54
2022/05/29 14:40:11;;;;;;;5.32;1.90;;;;;;;;;;5009200;28;20715;-56
2022/05/29 14:42:42;;;;;;;4.07;1.67;;;;;;;;;;5060610;28;20576;-57
2022/05/29 14:45:10;;;;;;;5.45;1.90;;;;;;;;;;5057819;28;20399;-57
2022/05/29 14:47:41;;;;;;;4.88;1.60;;;;;;;;;;5041852;28;20827;-55
2022/05/29 14:50:23;;;;;;;7.15;2.03;;;;;;;;;;5043102;28;20606;-57
2022/05/29 14:53:08;;;;;;;6.10;1.83;;;;;;;;;;5042605;28;20828;-57
2022/05/29 14:55:53;;;;;;;6.40;1.87;;;;;;;;;;5044060;28;20410;-54
2022/05/29 14:58:31;;;;;;;6.10;2.00;;;;;;;;;;5044832;28;20444;-55
2022/05/29 15:00:58;;;;;;;7.20;2.33;;;;;;;;;;5049764;28;20418;-54
2022/05/29 15:03:27;;;;;;;10.65;2.97;;;;;;;;;;5064636;28;20438;-57
2022/05/29 15:06:00;;;;;;;7.57;2.83;;;;;;;;;;5065167;28;20477;-57
2022/05/29 15:11:18;;;;;;;9.10;2.92;;;;;;;;;;5079880;28;20369;-55
2022/05/29 15:13:57;;;;;;;7.43;2.50;;;;;;;;;;5078310;28;20682;-56
2022/05/29 15:16:30;;;;;;;7.22;2.55;;;;;;;;;;5060825;28;20374;-54
2022/05/29 15:18:57;;;;;;;7.47;2.35;;;;;;;;;;5080571;28;20389;-56
2022/05/29 15:24:22;;;;;;;8.63;2.22;;;;;;;;;;5082255;28;20365;-55
2022/05/29 15:27:03;;;;;;;6.63;2.15;;;;;;;;;;5065487;28;20370;-58
2022/05/29 15:29:34;;;;;;;3.88;1.70;;;;;;;;;;5066352;28;20397;-55
2022/05/29 15:32:03;;;;;;;4.73;1.93;;;;;;;;;;5087401;28;20800;-56
2022/05/29 15:34:41;;;;;;;5.93;2.15;;;;;;;;;;5066021;28;20378;-55
2022/05/29 15:37:18;;;;;;;6.28;1.90;;;;;;;;;;5065017;28;20673;-55
2022/05/29 15:39:44;;;;;;;4.85;2.00;;;;;;;;;;5064475;28;20393;-57
2022/05/29 15:42:17;;;;;;;4.60;2.13;;;;;;;;;;5064867;28;20402;-55
2022/05/29 15:44:43;;;;;;;5.80;2.17;;;;;;;;;;5082873;28;20789;-57
2022/05/29 15:47:12;;;;;;;6.57;1.75;;;;;;;;;;5062962;28;20440;-56
2022/05/29 15:49:56;;;;;;;7.35;2.38;;;;;;;;;;5062393;28;20398;-56
2022/05/29 15:52:31;;;;;;;6.90;2.42;;;;;;;;;;5063505;28;20435;-56
2022/05/29 15:55:09;;;;;;;5.97;2.00;;;;;;;;;;5062030;28;20485;-52
2022/05/29 15:57:43;;;;;;;5.10;2.33;;;;;;;;;;5063303;28;20465;-53
2022/05/29 16:00:12;;;;;;;6.90;2.50;;;;;;;;;;5062633;28;20390;-55
2022/05/29 16:02:47;;;;;;;6.97;2.73;;;;;;;;;;5064895;28;20499;-54
2022/05/29 16:05:17;;;;;;;5.97;2.20;;;;;;;;;;5066430;28;20458;-57
2022/05/29 16:07:44;;;;;;;8.38;2.40;;;;;;;;;;5065434;28;20801;-54